createdAt,value
2022-10-14T15:49:16.053Z,53644.32
2022-10-14T15:50:20.291Z,53837.75
2022-10-14T15:51:29.653Z,53901.89
2022-10-14T15:52:33.346Z,53876.84
2022-10-14T15:53:37.454Z,53925.95
2022-10-14T15:54:40.972Z,53927.95
2022-10-14T15:55:44.545Z,53981.07
2022-10-14T15:56:48.009Z,54012.14
2022-10-14T15:57:51.928Z,53995.11
2022-10-14T15:58:55.012Z,53995.11
2022-10-14T15:59:58.404Z,54014.15
2022-10-14T16:01:04.474Z,53997.11
2022-10-14T16:02:08.259Z,54026.18
2022-10-14T16:03:12.042Z,54036.20
2022-10-14T16:04:15.374Z,54134.43
2022-10-14T16:05:20.326Z,54216.62
2022-10-14T16:06:26.548Z,54285.78
2022-10-14T16:07:29.405Z,54301.82
2022-10-14T16:08:34.825Z,54260.72
2022-10-14T16:09:37.770Z,54233.66
2022-10-14T16:10:41.405Z,54242.68
2022-10-14T16:11:44.572Z,54268.74
2022-10-14T16:12:47.761Z,54305.82
2022-10-14T16:13:50.830Z,54291.79
2022-10-14T16:14:54.009Z,54352.94
2022-10-14T16:15:56.894Z,54383.01
2022-10-14T16:17:03.056Z,54404.06
2022-10-14T16:18:04.265Z,54457.19
2022-10-14T16:19:07.259Z,54509.31
2022-10-14T16:20:15.040Z,54419.09
2022-10-14T16:21:19.749Z,54412.08
2022-10-14T16:23:43.231Z,54425.11
2022-10-14T16:24:46.603Z,54445.16
2022-10-14T16:25:52.350Z,54558.43
2022-10-14T16:27:09.034Z,54555.43
2022-10-14T16:28:12.448Z,54714.82
2022-10-14T16:29:15.506Z,54744.89
2022-10-14T16:30:29.508Z,54793.01
2022-10-14T16:31:32.534Z,54777.97
2022-10-14T16:32:36.526Z,54794.01
2022-10-14T16:33:43.151Z,54839.12
2022-10-14T16:34:44.861Z,54856.16
2022-10-14T16:37:12.389Z,54961.43
2022-10-14T16:41:00.496Z,55071.71
2022-10-14T16:43:37.801Z,54995.52
2022-10-14T16:44:44.800Z,54971.46
2022-10-14T16:45:57.211Z,54904.29
2022-10-14T16:48:21.129Z,54884.23
2022-10-14T16:49:24.459Z,54946.39
2022-10-14T16:50:34.510Z,54918.32
2022-10-14T16:53:11.072Z,54977.47
2022-10-14T16:54:21.540Z,54994.52
2022-10-14T16:55:27.080Z,55028.60
2022-10-14T16:56:33.500Z,55076.72
2022-10-14T16:57:37.619Z,55131.87
2022-10-14T16:58:41.709Z,55141.89
2022-10-14T16:59:45.314Z,55162.95
2022-10-14T17:00:48.900Z,55225.11
2022-10-14T17:01:53.125Z,55314.34
2022-10-14T17:02:56.323Z,55403.57
2022-10-14T17:05:24.255Z,55497.82
2022-10-14T17:06:30.007Z,55551.97
2022-10-14T17:07:43.143Z,55602.10
2022-10-14T17:08:46.150Z,55557.98
2022-10-14T17:09:52.554Z,55526.90
2022-10-14T17:11:02.074Z,55457.71
2022-10-14T17:12:21.748Z,55443.68
2022-10-14T17:13:25.308Z,55485.79
2022-10-14T17:14:40.202Z,55510.86
2022-10-14T17:15:43.970Z,55567.01
2022-10-14T17:16:49.265Z,55534.92
2022-10-14T17:17:53.331Z,55570.02
2022-10-14T17:23:12.324Z,55323.36
2022-10-14T17:24:28.203Z,55252.18
2022-10-14T17:25:38.843Z,55231.12
2022-10-14T17:27:05.026Z,55177.98
2022-10-14T17:28:18.103Z,55141.89
2022-10-14T17:29:22.009Z,55116.83
2022-10-14T17:30:25.877Z,55094.77
2022-10-14T17:32:52.013Z,55080.73
2022-10-14T17:33:55.796Z,55113.82
2022-10-14T17:35:00.215Z,55119.84
2022-10-14T17:36:03.507Z,55104.80
2022-10-14T17:38:12.575Z,55196.03
2022-10-14T17:40:36.302Z,55343.41
2022-10-14T17:41:39.852Z,55384.52
2022-10-14T17:42:44.958Z,55420.62
2022-10-14T17:45:09.162Z,55631.18
2022-10-14T17:46:18.345Z,55747.50
2022-10-14T17:47:21.903Z,55822.70
2022-10-14T17:48:25.867Z,56017.24
2022-10-14T17:49:33.394Z,56078.41
2022-10-14T17:50:52.490Z,56180.70
2022-10-14T17:51:55.529Z,56182.71
2022-10-14T17:52:59.223Z,56228.84
2022-10-14T17:54:03.009Z,56272.96
2022-10-14T17:55:06.028Z,56338.15
2022-10-14T17:56:09.990Z,56346.18
2022-10-14T17:57:13.792Z,56353.20
2022-10-14T17:58:18.619Z,56452.48
2022-10-14T17:59:23.841Z,56478.56
2022-10-14T18:00:37.068Z,56502.63
2022-10-14T18:02:01.724Z,56524.70
2022-10-14T18:02:48.033Z,56554.78
2022-10-14T18:03:56.960Z,56535.73
2022-10-14T18:05:03.416Z,56471.54
2022-10-14T18:06:21.682Z,56475.55
2022-10-14T18:07:25.295Z,56516.67
2022-10-14T18:08:29.864Z,56534.72
2022-10-14T18:09:44.667Z,56536.73
2022-10-14T18:10:55.303Z,56563.81
2022-10-14T18:12:09.494Z,56571.83
2022-10-14T18:13:28.758Z,56609.94
2022-10-14T18:14:34.669Z,56666.11
2022-10-14T18:15:38.690Z,56771.42
2022-10-14T18:16:41.635Z,56835.61
2022-10-14T18:17:45.375Z,56859.69
2022-10-14T18:18:57.163Z,56970.02
2022-10-14T18:20:05.309Z,56982.05
2022-10-14T18:21:09.166Z,57081.36
2022-10-14T18:22:13.758Z,57099.41
2022-10-14T18:23:22.200Z,57124.49
2022-10-14T18:24:32.225Z,57131.51
2022-10-14T18:25:40.825Z,57108.44
2022-10-14T18:26:51.992Z,57096.41
2022-10-14T18:28:02.022Z,57100.42
2022-10-14T18:29:13.446Z,57116.47
2022-10-14T18:30:17.725Z,57173.64
2022-10-14T18:31:25.409Z,57210.76
2022-10-14T18:32:31.140Z,57209.75
2022-10-14T18:33:38.768Z,57232.83
2022-10-14T18:34:47.232Z,57227.81
2022-10-14T18:35:51.300Z,57274.96
2022-10-14T18:36:55.033Z,57316.09
2022-10-14T18:37:59.134Z,57285.99
2022-10-14T18:39:03.758Z,57293.01
2022-10-14T18:41:27.851Z,57214.77
2022-10-14T18:42:31.373Z,57252.89
2022-10-14T18:43:35.404Z,57253.89
2022-10-14T18:44:38.352Z,57295.02
2022-10-14T18:45:47.840Z,57310.07
2022-10-14T18:47:00.781Z,57347.18
2022-10-14T18:48:12.484Z,57352.20
2022-10-14T18:50:40.245Z,57433.45
2022-10-14T18:51:47.587Z,57505.68
2022-10-14T18:54:16.460Z,57486.62
2022-10-14T18:55:29.849Z,57524.74
2022-10-14T18:56:34.457Z,57519.73
2022-10-14T18:57:53.879Z,57569.89
2022-10-14T18:58:57.646Z,57569.89
2022-10-14T19:00:01.564Z,57503.68
2022-10-14T19:01:06.135Z,57518.72
2022-10-14T19:02:10.485Z,57501.67
2022-10-14T19:03:16.113Z,57502.67
2022-10-14T19:04:19.328Z,57500.67
2022-10-14T19:05:23.403Z,57490.63
2022-10-14T19:06:26.993Z,57510.70
2022-10-14T19:07:32.419Z,57544.80
2022-10-14T19:08:39.414Z,57587.94
2022-10-14T19:09:44.005Z,57582.93
2022-10-14T19:10:49.146Z,57540.79
2022-10-14T19:11:52.840Z,57485.62
2022-10-14T19:12:56.748Z,57501.67
2022-10-14T19:15:20.614Z,57448.50
2022-10-14T19:16:25.115Z,57500.67
2022-10-14T19:17:30.553Z,57488.63
2022-10-14T19:18:34.041Z,57507.69
2022-10-14T19:19:37.854Z,57560.86
2022-10-14T19:20:41.452Z,57581.92
2022-10-14T19:21:45.221Z,57596.97
2022-10-14T19:22:56.719Z,57628.07
2022-10-14T19:25:20.989Z,57563.87
2022-10-14T19:26:33.373Z,57529.76
2022-10-14T19:27:37.045Z,57457.53
2022-10-14T19:31:28.951Z,57306.05
2022-10-14T19:32:32.820Z,57286.99
2022-10-14T19:33:50.412Z,57250.88
2022-10-14T19:34:54.238Z,57203.73
2022-10-14T19:36:05.630Z,57177.66
2022-10-14T19:38:29.234Z,57126.50
2022-10-14T19:39:34.440Z,57133.52
2022-10-14T19:40:39.848Z,57100.42
2022-10-14T19:41:43.844Z,57058.29
2022-10-14T19:42:52.994Z,56967.01
2022-10-14T19:44:08.306Z,56904.82
2022-10-14T19:46:33.633Z,56657.08
2022-10-14T19:49:10.183Z,56365.23
2022-10-14T19:52:59.485Z,56172.68
2022-10-14T19:58:08.947Z,56041.31
2022-10-14T19:59:12.848Z,56044.32
2022-10-14T20:02:59.580Z,56052.34
2022-10-14T20:09:29.923Z,55586.06
2022-10-14T20:10:34.427Z,55551.97
2022-10-14T20:11:53.315Z,55470.75
2022-10-14T20:13:10.386Z,55437.66
2022-10-14T20:15:34.875Z,55317.35
2022-10-14T20:18:14.417Z,55342.41
2022-10-14T20:24:19.498Z,55115.82
2022-10-14T20:27:01.360Z,55055.67
2022-10-14T20:28:13.168Z,54990.50
2022-10-14T20:29:17.367Z,54964.44
2022-10-14T20:30:20.545Z,54730.86
2022-10-14T20:31:36.281Z,54619.58
2022-10-14T20:32:41.757Z,54471.22
2022-10-14T20:33:51.298Z,54244.68
2022-10-14T20:34:58.253Z,54100.35
2022-10-14T20:36:12.258Z,54101.35
2022-10-14T20:38:43.970Z,53636.30
2022-10-14T20:39:55.120Z,53408.80
2022-10-14T20:41:10.081Z,53358.70
2022-10-14T20:42:20.789Z,53310.60
2022-10-14T20:43:24.335Z,53243.46
2022-10-14T20:45:45.819Z,53185.34
2022-10-14T20:46:58.496Z,53132.22
2022-10-14T20:48:07.177Z,53160.28
2022-10-14T20:49:10.975Z,53148.26
2022-10-14T20:50:16.600Z,53161.29
2022-10-14T20:51:23.339Z,53168.30
2022-10-14T20:52:27.065Z,53101.16
2022-10-14T20:54:58.177Z,53092.14
2022-10-14T20:56:01.789Z,53108.17
2022-10-14T20:57:05.588Z,53112.18
2022-10-14T20:58:09.476Z,53043.04
2022-10-14T20:59:13.790Z,53073.10
2022-10-14T21:00:19.229Z,53065.09
2022-10-14T21:01:22.965Z,53019.99
2022-10-14T21:02:26.816Z,53058.07
2022-10-14T21:03:34.405Z,53050.05
2022-10-14T21:04:38.312Z,53108.17
2022-10-14T21:05:41.485Z,53120.20
2022-10-14T21:06:47.941Z,53062.08
2022-10-14T21:07:51.949Z,53042.04
2022-10-14T21:08:55.869Z,53027.01
2022-10-14T21:10:20.025Z,52997.95
2022-10-14T21:12:48.698Z,52972.90
2022-10-14T21:13:52.397Z,53022.00
2022-10-14T21:14:55.985Z,52987.93
2022-10-14T21:15:59.491Z,52999.95
2022-10-14T21:17:06.535Z,52981.92
2022-10-14T21:18:14.051Z,52992.94
2022-10-14T21:19:17.828Z,53009.97
2022-10-14T21:20:21.217Z,52993.94
2022-10-14T21:21:24.619Z,52955.86
2022-10-14T21:22:28.100Z,52963.88
2022-10-14T21:23:31.590Z,52979.91
2022-10-14T21:24:35.115Z,53010.98
2022-10-14T21:25:40.916Z,52949.85
2022-10-14T21:26:44.517Z,52986.93
2022-10-14T21:27:47.896Z,52962.88
2022-10-14T21:28:51.755Z,52979.91
2022-10-14T21:31:04.845Z,53009.97
2022-10-14T21:32:10.765Z,52992.94
2022-10-14T21:33:19.339Z,52989.93
2022-10-14T21:34:22.752Z,52995.95
2022-10-14T21:35:26.642Z,52998.95
2022-10-14T21:36:30.131Z,52991.94
2022-10-14T21:37:33.936Z,52975.91
2022-10-14T21:38:39.888Z,53010.98
2022-10-14T21:39:43.569Z,53000.95
2022-10-14T21:40:51.141Z,52966.89
2022-10-14T21:41:54.028Z,52977.91
2022-10-14T21:42:57.420Z,52963.88
2022-10-14T21:44:01.128Z,52970.89
2022-10-14T21:45:04.405Z,52999.95
2022-10-14T21:46:07.813Z,52966.89
2022-10-14T21:47:11.367Z,52998.95
2022-10-14T21:48:15.684Z,52969.89
2022-10-14T21:49:19.691Z,52951.86
2022-10-14T21:50:23.484Z,52983.92
2022-10-14T21:51:34.155Z,53009.97
2022-10-14T21:52:44.581Z,53005.96
2022-10-14T21:53:47.455Z,52983.92
2022-10-14T21:54:52.295Z,53065.09
2022-10-14T21:55:55.469Z,52971.89
2022-10-14T21:56:58.973Z,52949.85
2022-10-14T21:58:02.188Z,52939.83
2022-10-14T21:59:05.327Z,52945.84
2022-10-14T22:00:08.803Z,52947.85
2022-10-14T22:01:17.059Z,52978.91
2022-10-14T22:02:20.294Z,52970.89
2022-10-14T22:03:23.706Z,52966.89
2022-10-14T22:04:28.034Z,52993.94
2022-10-14T22:05:31.369Z,52931.82
2022-10-14T22:06:34.660Z,52959.87
2022-10-14T22:07:52.420Z,52955.86
2022-10-14T22:08:56.590Z,52940.83
2022-10-14T22:10:01.103Z,52935.82
2022-10-14T22:11:04.381Z,52963.88
2022-10-14T22:12:08.183Z,52929.81
2022-10-14T22:13:11.270Z,52958.87
2022-10-14T22:14:14.789Z,52941.84
2022-10-14T22:15:18.043Z,52954.86
2022-10-14T22:16:21.896Z,52949.85
2022-10-14T22:17:25.814Z,52956.86
2022-10-14T22:18:30.253Z,52927.80
2022-10-14T22:19:38.802Z,52908.77
2022-10-14T22:20:52.678Z,52931.82
2022-10-14T22:21:55.977Z,52915.78
2022-10-14T22:23:09.933Z,52935.82
2022-10-14T22:25:43.818Z,53011.98
2022-10-14T22:26:47.191Z,52975.91
2022-10-14T22:27:50.691Z,52937.83
2022-10-14T22:28:54.558Z,52870.69
2022-10-14T22:30:00.233Z,52853.66
2022-10-14T22:31:03.401Z,52906.77
2022-10-14T22:32:06.890Z,52927.80
2022-10-14T22:33:10.708Z,52942.84
2022-10-14T22:34:14.292Z,52931.82
2022-10-14T22:35:17.867Z,52921.79
2022-10-14T22:36:24.193Z,52948.85
2022-10-14T22:37:27.837Z,52927.80
2022-10-14T22:38:30.906Z,52926.80
2022-10-14T22:39:34.508Z,52937.83
2022-10-14T22:40:51.253Z,52956.86
2022-10-14T22:41:55.613Z,52907.77
2022-10-14T22:42:59.505Z,52903.76
2022-10-14T22:44:02.888Z,52925.80
2022-10-14T22:45:06.784Z,52947.85
2022-10-14T22:46:10.913Z,52884.72
2022-10-14T22:47:14.496Z,52897.75
2022-10-14T22:48:17.867Z,52869.69
2022-10-14T22:49:27.779Z,52899.75
2022-10-14T22:50:34.994Z,52848.65
2022-10-14T22:51:41.591Z,52870.69
2022-10-14T22:52:45.550Z,52861.67
2022-10-14T22:53:50.273Z,52854.66
2022-10-14T22:54:56.191Z,52852.66
2022-10-14T22:56:01.033Z,52900.75
2022-10-14T22:57:04.432Z,52886.72
2022-10-14T22:58:12.935Z,52863.68
2022-10-14T22:59:16.427Z,52877.71
2022-10-14T23:00:22.979Z,52840.63
2022-10-14T23:01:26.474Z,52830.61
2022-10-14T23:02:30.979Z,52813.58
2022-10-14T23:03:34.898Z,52870.69
2022-10-14T23:04:38.373Z,52846.64
2022-10-14T23:05:42.463Z,52882.71
2022-10-14T23:06:46.563Z,52847.64
2022-10-14T23:07:50.064Z,52868.69
2022-10-14T23:09:05.256Z,52836.62
2022-10-14T23:10:09.014Z,52837.62
2022-10-14T23:11:12.610Z,52765.48
2022-10-14T23:12:22.100Z,52788.53
2022-10-14T23:13:25.633Z,52847.64
2022-10-14T23:14:29.025Z,52798.55
2022-10-14T23:15:32.214Z,52836.62
2022-10-14T23:16:37.551Z,52819.59
2022-10-14T23:17:40.821Z,52825.60
2022-10-14T23:18:44.512Z,52824.60
2022-10-14T23:19:48.206Z,52819.59
2022-10-14T23:20:54.543Z,52833.62
2022-10-14T23:21:58.043Z,52853.66
2022-10-14T23:23:01.125Z,52855.66
2022-10-14T23:24:05.332Z,52856.66
2022-10-14T23:25:09.029Z,52878.71
2022-10-14T23:26:14.302Z,52885.72
2022-10-14T23:27:19.069Z,52869.69
2022-10-14T23:28:22.908Z,52868.69
2022-10-14T23:29:26.012Z,52908.77
2022-10-14T23:30:29.450Z,52914.78
2022-10-14T23:31:33.037Z,52906.77
2022-10-14T23:32:36.421Z,52828.61
2022-10-14T23:33:40.124Z,52911.77
2022-10-14T23:34:43.812Z,52904.76
2022-10-14T23:35:53.832Z,52902.76
2022-10-14T23:36:57.447Z,52822.59
2022-10-14T23:38:01.438Z,52888.73
2022-10-14T23:39:18.461Z,52905.76
2022-10-14T23:40:22.147Z,52880.71
2022-10-14T23:41:25.428Z,52890.73
2022-10-14T23:42:29.129Z,52851.65
2022-10-14T23:43:33.836Z,52793.54
2022-10-14T23:44:41.528Z,52828.61
2022-10-14T23:46:56.094Z,52896.74
2022-10-14T23:47:59.569Z,52867.68
2022-10-14T23:49:07.956Z,52928.81
2022-10-14T23:50:07.359Z,52880.71
2022-10-14T23:51:14.912Z,52927.80
2022-10-14T23:52:21.128Z,52915.78
2022-10-14T23:53:25.104Z,52912.78
2022-10-14T23:54:28.803Z,52936.82
2022-10-14T23:55:40.990Z,52931.82
2022-10-14T23:56:43.980Z,52881.71
2022-10-14T23:57:47.876Z,52877.71
2022-10-14T23:58:51.970Z,52891.73
2022-10-14T23:59:55.660Z,52921.79
